Time;durP1;ratioP1;P1;durP2;ratioP2;P2;SDS_P1;SDS_P2;PMS_P1;PMS_P2;Temp;Humidity;BMP_temperature;BMP_pressure;BME280_temperature;BME280_humidity;BME280_pressure;Samples;Min_cycle;Max_cycle;Signal;HPM_P1;HPM_P2
2022/09/18 00:00:22;;;;;;;6.85;3.37;;;;;;;10.41;100.00;97571.55;2154890;83;21605;-86
2022/09/18 00:03:24;;;;;;;7.17;3.65;;;;;;;10.43;100.00;97564.33;2153957;83;21066;-86
2022/09/18 00:06:25;;;;;;;5.22;3.65;;;;;;;10.42;100.00;97554.04;2154123;83;20971;-86
2022/09/18 00:09:25;;;;;;;4.12;3.70;;;;;;;10.41;100.00;97552.44;2154713;83;20964;-83
2022/09/18 00:12:26;;;;;;;6.42;3.40;;;;;;;10.43;100.00;97551.75;2157072;83;20979;-85
2022/09/18 00:15:27;;;;;;;8.80;3.50;;;;;;;10.42;100.00;97548.80;2178142;81;20988;-85
2022/09/18 00:18:27;;;;;;;5.72;3.27;;;;;;;10.39;100.00;97553.16;2179189;82;20982;-84
2022/09/18 00:21:30;;;;;;;5.58;3.95;;;;;;;10.37;100.00;97557.29;2179048;81;20975;-86
2022/09/18 00:24:31;;;;;;;6.67;4.08;;;;;;;10.35;100.00;97549.36;2179179;82;20984;-86
2022/09/18 00:27:31;;;;;;;5.22;3.33;;;;;;;10.33;100.00;97556.08;2179801;82;20994;-85
2022/09/18 00:30:32;;;;;;;6.53;3.83;;;;;;;10.33;100.00;97550.04;2179041;82;20979;-86
2022/09/18 00:33:33;;;;;;;7.40;3.70;;;;;;;10.32;100.00;97554.98;2179178;82;20940;-86
2022/09/18 00:36:34;;;;;;;6.97;3.35;;;;;;;10.30;100.00;97554.39;2179151;81;21058;-86
2022/09/18 00:39:35;;;;;;;5.65;3.67;;;;;;;10.30;100.00;97551.77;2179409;81;20991;-86
2022/09/18 00:42:35;;;;;;;6.40;3.50;;;;;;;10.29;100.00;97551.48;2180563;82;20999;-85
2022/09/18 00:45:36;;;;;;;6.90;3.52;;;;;;;10.30;100.00;97553.08;2183130;82;21007;-84
2022/09/18 00:48:37;;;;;;;5.33;3.30;;;;;;;10.27;100.00;97547.77;2183400;82;20947;-85
2022/09/18 00:51:37;;;;;;;5.95;3.40;;;;;;;10.27;100.00;97544.34;2180523;82;20952;-85
2022/09/18 00:54:38;;;;;;;4.60;3.08;;;;;;;10.27;100.00;97543.03;2179313;82;21234;-86
2022/09/18 00:57:40;;;;;;;4.85;3.10;;;;;;;10.24;100.00;97537.69;2179188;82;21474;-86
2022/09/18 01:00:41;;;;;;;4.85;3.37;;;;;;;10.20;100.00;97535.16;2179220;82;21036;-86
2022/09/18 01:03:41;;;;;;;5.15;3.65;;;;;;;10.19;100.00;97538.29;2179212;82;21266;-87
2022/09/18 01:06:42;;;;;;;6.37;3.95;;;;;;;10.17;100.00;97535.08;2179049;82;20971;-85
2022/09/18 01:09:43;;;;;;;4.72;2.87;;;;;;;10.19;100.00;97529.13;2179247;82;20932;-88
2022/09/18 01:12:44;;;;;;;10.15;4.30;;;;;;;10.19;100.00;97516.05;2179608;82;20995;-88
2022/09/18 01:15:44;;;;;;;4.70;3.40;;;;;;;10.17;100.00;97525.92;2155135;82;21047;-88
2022/09/18 01:18:45;;;;;;;6.17;3.60;;;;;;;10.18;100.00;97518.88;2154240;83;21055;-85
2022/09/18 01:21:46;;;;;;;4.95;3.67;;;;;;;10.15;100.00;97518.80;2153981;83;21046;-86
2022/09/18 01:24:47;;;;;;;6.17;3.65;;;;;;;10.13;100.00;97520.79;2154405;83;20976;-85
2022/09/18 01:27:47;;;;;;;3.52;3.15;;;;;;;10.12;100.00;97523.11;2154315;83;21015;-86
2022/09/18 01:30:48;;;;;;;5.85;3.30;;;;;;;10.09;100.00;97523.53;2154122;83;20964;-87
2022/09/18 01:33:49;;;;;;;6.80;3.22;;;;;;;10.06;100.00;97527.03;2154193;83;21020;-86
2022/09/18 01:36:50;;;;;;;6.90;3.30;;;;;;;10.04;100.00;97527.25;2154177;83;21494;-86
2022/09/18 01:39:50;;;;;;;5.33;3.30;;;;;;;9.99;100.00;97532.30;2153971;83;21471;-86
2022/09/18 01:42:51;;;;;;;6.62;3.35;;;;;;;9.96;100.00;97534.80;2154152;83;21026;-87
2022/09/18 01:45:52;;;;;;;6.20;2.40;;;;;;;9.95;100.00;97539.73;2154153;83;21015;-86
2022/09/18 01:48:53;;;;;;;5.08;2.95;;;;;;;9.94;100.00;97530.79;2154131;83;20933;-86
2022/09/18 01:51:53;;;;;;;5.22;3.50;;;;;;;9.94;100.00;97534.71;2154084;83;21545;-87
2022/09/18 01:54:54;;;;;;;7.92;3.05;;;;;;;9.89;100.00;97530.11;2154133;83;20987;-86
2022/09/18 01:57:55;;;;;;;5.10;2.75;;;;;;;9.85;100.00;97530.70;2154992;83;20941;-88
2022/09/18 02:00:55;;;;;;;5.67;2.62;;;;;;;9.87;100.00;97533.91;2158541;83;21006;-86
2022/09/18 02:03:56;;;;;;;6.67;3.02;;;;;;;9.86;100.00;97528.39;2156774;83;20988;-88
2022/09/18 02:06:57;;;;;;;5.03;2.72;;;;;;;9.82;100.00;97526.70;2154396;83;22119;-87
2022/09/18 02:09:58;;;;;;;8.60;2.75;;;;;;;9.83;100.00;97539.27;2125622;83;21011;-88
2022/09/18 02:12:58;;;;;;;5.20;2.90;;;;;;;9.81;100.00;97529.52;2155466;83;20960;-87
2022/09/18 02:15:59;;;;;;;4.22;2.77;;;;;;;9.78;100.00;97529.90;2180468;81;21027;-87
2022/09/18 02:19:00;;;;;;;5.83;2.20;;;;;;;9.75;100.00;97530.31;2181343;82;21055;-88
2022/09/18 02:22:01;;;;;;;7.67;2.67;;;;;;;9.72;100.00;97531.53;2179152;81;21454;-87
2022/09/18 02:25:01;;;;;;;5.83;2.22;;;;;;;9.72;100.00;97530.73;2179436;82;21503;-87
2022/09/18 02:28:02;;;;;;;5.42;2.98;;;;;;;9.70;100.00;97530.94;2179048;81;21479;-88
2022/09/18 02:31:03;;;;;;;5.00;2.47;;;;;;;9.68;100.00;97529.80;2179214;81;21459;-88
2022/09/18 02:34:05;;;;;;;3.33;2.15;;;;;;;9.66;100.00;97534.44;2179133;82;21557;-87
2022/09/18 02:37:06;;;;;;;6.85;2.52;;;;;;;9.66;100.00;97536.25;2179189;81;21044;-87
2022/09/18 02:40:08;;;;;;;7.37;2.70;;;;;;;9.65;100.00;97539.87;2179243;82;21028;-86
2022/09/18 02:43:09;;;;;;;6.30;2.10;;;;;;;9.64;100.00;97540.38;2179168;82;21079;-88
2022/09/18 02:46:10;;;;;;;3.05;2.33;;;;;;;9.65;100.00;97547.72;2179157;82;21498;-88
2022/09/18 02:49:11;;;;;;;6.25;2.33;;;;;;;9.63;100.00;97545.31;2178681;82;21047;-89
2022/09/18 02:52:12;;;;;;;8.53;2.60;;;;;;;9.60;100.00;97548.34;2179604;81;20998;-88
2022/09/18 02:55:13;;;;;;;4.67;2.35;;;;;;;9.60;100.00;97538.35;2179477;81;21487;-88
2022/09/18 02:58:14;;;;;;;8.30;2.10;;;;;;;9.58;100.00;97544.30;2179296;82;20983;-88
2022/09/18 03:01:15;;;;;;;5.17;2.10;;;;;;;9.56;100.00;97530.63;2179277;82;21012;-88
2022/09/18 03:04:16;;;;;;;3.98;2.58;;;;;;;9.54;100.00;97543.09;2179125;82;20999;-88
2022/09/18 03:07:17;;;;;;;4.72;1.75;;;;;;;9.52;100.00;97537.28;2179123;82;20976;-89
2022/09/18 03:10:18;;;;;;;5.28;2.20;;;;;;;9.51;100.00;97533.03;2179174;82;21098;-86
2022/09/18 03:13:19;;;;;;;9.15;2.37;;;;;;;9.48;100.00;97539.47;2179486;82;20966;-85
2022/09/18 03:16:19;;;;;;;6.92;2.33;;;;;;;9.45;100.00;97534.66;2155221;83;21027;-87
2022/09/18 03:19:20;;;;;;;5.05;2.02;;;;;;;9.45;100.00;97534.66;2154835;83;21035;-88
2022/09/18 03:22:21;;;;;;;6.42;2.33;;;;;;;9.43;100.00;97541.09;2154542;83;21039;-87
2022/09/18 03:25:22;;;;;;;3.85;2.30;;;;;;;9.40;100.00;97537.85;2154457;83;21035;-88
2022/09/18 03:28:22;;;;;;;5.58;1.90;;;;;;;9.39;100.00;97537.55;2154016;82;20976;-89
2022/09/18 03:31:23;;;;;;;5.62;2.15;;;;;;;9.37;100.00;97543.98;2154186;83;20998;-87
2022/09/18 03:34:24;;;;;;;5.83;2.08;;;;;;;9.36;100.00;97543.69;2154204;83;20984;-88
2022/09/18 03:37:25;;;;;;;3.30;1.85;;;;;;;9.38;100.00;97552.93;2154023;83;20996;-87
2022/09/18 03:40:25;;;;;;;3.60;2.05;;;;;;;9.37;100.00;97550.02;2154140;83;21003;-88
2022/09/18 03:43:26;;;;;;;2.85;1.37;;;;;;;9.33;100.00;97552.74;2154149;83;20999;-88
2022/09/18 03:46:27;;;;;;;4.92;1.90;;;;;;;9.34;100.00;97550.94;2154028;83;20948;-88
2022/09/18 03:49:27;;;;;;;6.67;2.08;;;;;;;9.31;100.00;97557.84;2153988;83;21064;-88
2022/09/18 03:52:29;;;;;;;2.77;1.57;;;;;;;9.30;100.00;97553.63;2154074;83;21487;-88
2022/09/18 03:55:29;;;;;;;6.17;1.95;;;;;;;9.28;100.00;97556.44;2154274;83;21051;-88
2022/09/18 03:58:30;;;;;;;2.85;1.62;;;;;;;9.28;100.00;97556.94;2154209;82;21015;-88
2022/09/18 04:01:31;;;;;;;5.08;1.67;;;;;;;9.28;100.00;97566.89;2126485;83;20953;-88
2022/09/18 04:04:32;;;;;;;2.98;1.55;;;;;;;9.26;100.00;97566.29;2156866;83;21032;-87
2022/09/18 04:07:32;;;;;;;3.77;1.27;;;;;;;9.25;100.00;97569.91;2155818;83;21028;-87
2022/09/18 04:10:33;;;;;;;4.95;2.50;;;;;;;9.24;100.00;97578.75;2154055;83;20976;-88
2022/09/18 04:13:34;;;;;;;6.97;2.08;;;;;;;9.23;100.00;97577.61;2154319;83;21023;-87
2022/09/18 04:16:34;;;;;;;5.62;2.17;;;;;;;9.22;100.00;97583.84;2180267;81;20980;-86
2022/09/18 04:19:35;;;;;;;7.80;2.42;;;;;;;9.21;100.00;97582.23;2181798;82;21009;-84
2022/09/18 04:22:36;;;;;;;3.83;1.70;;;;;;;9.17;100.00;97583.15;2180715;82;21534;-87
2022/09/18 04:25:37;;;;;;;4.97;1.80;;;;;;;9.15;100.00;97588.27;2179454;81;21479;-88
2022/09/18 04:28:37;;;;;;;3.83;1.87;;;;;;;9.11;100.00;97593.06;2179464;81;21482;-87
2022/09/18 04:31:38;;;;;;;5.22;2.27;;;;;;;9.09;100.00;97591.16;2179269;82;20969;-88
2022/09/18 04:34:39;;;;;;;4.87;1.90;;;;;;;9.08;100.00;97596.88;2179453;81;21003;-88
2022/09/18 04:37:40;;;;;;;5.25;2.05;;;;;;;9.07;100.00;97601.81;2179419;82;20987;-88
2022/09/18 04:40:40;;;;;;;3.90;2.37;;;;;;;9.00;100.00;97599.67;2178891;82;20967;-88
2022/09/18 04:43:42;;;;;;;3.72;1.72;;;;;;;8.95;100.00;97600.74;2179125;82;21093;-88
2022/09/18 04:46:43;;;;;;;3.58;2.02;;;;;;;8.90;100.00;97604.45;2179259;82;20959;-88
2022/09/18 04:49:43;;;;;;;4.55;2.08;;;;;;;8.81;100.00;97601.72;2179802;81;21010;-90
2022/09/18 04:52:44;;;;;;;5.97;2.00;;;;;;;8.81;100.00;97601.72;2179162;82;20999;-88
2022/09/18 04:55:45;;;;;;;4.75;1.92;;;;;;;8.80;100.00;97600.91;2179338;82;20936;-88
2022/09/18 04:58:45;;;;;;;6.22;2.00;;;;;;;8.81;100.00;97603.02;2179411;82;20994;-88
2022/09/18 05:01:46;;;;;;;4.03;1.87;;;;;;;8.80;100.00;97606.63;2179430;82;21007;-89
2022/09/18 05:04:47;;;;;;;4.78;1.67;;;;;;;8.78;100.00;97609.94;2179331;82;20967;-89
2022/09/18 05:07:48;;;;;;;3.72;1.82;;;;;;;8.78;100.00;97599.00;2179426;82;20995;-88
2022/09/18 05:10:48;;;;;;;5.20;2.90;;;;;;;8.79;100.00;97604.52;2179294;82;21369;-89
2022/09/18 05:13:51;;;;;;;2.95;1.55;;;;;;;8.82;100.00;97613.77;2157868;82;20983;-87
2022/09/18 05:16:52;;;;;;;3.35;1.65;;;;;;;8.86;100.00;97611.55;2179211;82;20998;-87
2022/09/18 05:19:52;;;;;;;3.00;1.57;;;;;;;8.92;100.00;97608.17;2179232;82;20948;-87
2022/09/18 05:22:53;;;;;;;1.82;1.35;;;;;;;8.92;100.00;97604.26;2179261;82;20978;-87
2022/09/18 05:25:54;;;;;;;3.72;2.37;;;;;;;8.95;100.00;97605.16;2179078;82;20959;-87
2022/09/18 05:28:54;;;;;;;3.75;2.17;;;;;;;8.97;100.00;97609.71;2179330;82;21502;-91
2022/09/18 05:31:57;;;;;;;4.05;2.00;;;;;;;9.02;100.00;97608.11;2179270;81;21516;-92
2022/09/18 05:34:58;;;;;;;4.00;1.62;;;;;;;9.09;100.00;97608.94;2179711;82;21023;-92
2022/09/18 05:37:58;;;;;;;3.72;1.98;;;;;;;9.14;100.00;97608.33;2179582;82;21022;-91
2022/09/18 05:41:00;;;;;;;6.35;2.02;;;;;;;9.21;100.00;97608.36;2179061;82;21006;-90
2022/09/18 05:44:01;;;;;;;4.30;1.67;;;;;;;9.29;100.00;97616.81;2179389;82;20987;-90
2022/09/18 05:47:02;;;;;;;4.47;2.02;;;;;;;9.35;100.00;97615.23;2179450;82;21474;-85
2022/09/18 05:50:02;;;;;;;5.40;1.57;;;;;;;9.38;100.00;97618.24;2179154;81;21463;-87
2022/09/18 05:53:03;;;;;;;6.25;2.47;;;;;;;9.40;100.00;97620.66;2179478;82;21538;-91
2022/09/18 05:56:04;;;;;;;3.83;2.33;;;;;;;9.50;100.00;97617.15;2179266;82;21018;-90
2022/09/18 05:59:05;;;;;;;6.87;1.77;;;;;;;9.55;100.00;97610.84;2179460;82;20948;-92
2022/09/18 06:02:06;;;;;;;5.37;2.35;;;;;;;9.58;100.00;97614.34;2179594;82;20997;-91
2022/09/18 06:05:06;;;;;;;3.50;1.95;;;;;;;9.63;100.00;97609.84;2181273;82;21139;-90
2022/09/18 06:08:07;;;;;;;5.40;1.55;;;;;;;9.68;100.00;97614.75;2182399;81;21043;-89
2022/09/18 06:11:08;;;;;;;3.42;1.37;;;;;;;9.76;100.00;97614.27;2179690;82;20986;-91
2022/09/18 06:14:09;;;;;;;5.10;2.20;;;;;;;9.82;100.00;97613.47;2178817;82;21462;-89
2022/09/18 06:17:09;;;;;;;5.35;2.33;;;;;;;9.90;100.00;97611.96;2154964;83;21581;-88
2022/09/18 06:20:10;;;;;;;3.22;2.80;;;;;;;9.97;100.00;97612.77;2157355;83;20967;-89
2022/09/18 06:23:11;;;;;;;4.08;2.52;;;;;;;10.04;100.00;97617.98;2157056;83;21011;-89
2022/09/18 06:26:12;;;;;;;5.30;2.52;;;;;;;10.04;100.00;97615.36;2154411;83;21551;-91
2022/09/18 06:29:13;;;;;;;6.62;2.75;;;;;;;10.13;100.00;97620.18;2154271;82;21487;-88
2022/09/18 06:32:14;;;;;;;8.35;3.05;;;;;;;10.21;100.00;97625.71;2154410;83;21054;-87
2022/09/18 06:35:14;;;;;;;3.72;2.50;;;;;;;10.33;100.00;97627.23;2154169;83;20980;-90
2022/09/18 06:38:15;;;;;;;6.87;2.47;;;;;;;10.41;100.00;97624.39;2154345;83;20999;-87
2022/09/18 06:41:16;;;;;;;7.60;2.40;;;;;;;10.42;100.00;97625.52;2154173;82;20991;-89
2022/09/18 06:44:16;;;;;;;6.05;2.60;;;;;;;10.49;100.00;97628.11;2154017;83;20988;-89
2022/09/18 06:47:17;;;;;;;2.30;2.00;;;;;;;10.52;100.00;97627.21;2154113;83;20992;-89
2022/09/18 06:50:18;;;;;;;6.95;2.30;;;;;;;10.57;100.00;97623.16;2154298;83;21007;-90
2022/09/18 06:53:19;;;;;;;3.55;1.80;;;;;;;10.61;100.00;97625.17;2154101;83;21127;-89
2022/09/18 06:56:19;;;;;;;5.45;2.27;;;;;;;10.72;100.00;97624.53;2154342;83;21510;-91
2022/09/18 06:59:21;;;;;;;5.30;2.83;;;;;;;10.83;100.00;97629.63;2154028;83;21062;-90
2022/09/18 07:02:22;;;;;;;3.33;1.98;;;;;;;10.87;100.00;97632.11;2154240;83;21078;-88
2022/09/18 07:05:23;;;;;;;2.80;2.00;;;;;;;10.94;100.00;97630.78;2154407;83;21428;-87
2022/09/18 07:08:23;;;;;;;3.58;2.10;;;;;;;11.00;100.00;97628.66;2154503;83;21031;-93
2022/09/18 07:11:24;;;;;;;6.37;2.52;;;;;;;11.02;100.00;97631.86;2154192;83;21024;-90
2022/09/18 07:14:25;;;;;;;2.50;1.45;;;;;;;11.09;100.00;97634.76;2154137;81;22068;-87
2022/09/18 07:17:26;;;;;;;3.45;1.77;;;;;;;11.13;100.00;97634.33;2155023;83;20987;-88
2022/09/18 07:20:28;;;;;;;2.90;1.57;;;;;;;11.18;100.00;97642.38;2155828;82;20975;-91
2022/09/18 07:23:31;;;;;;;2.35;1.32;;;;;;;11.29;100.00;97638.58;2155047;82;21367;-88
2022/09/18 07:26:31;;;;;;;3.42;1.80;;;;;;;11.39;100.00;97631.06;2154373;83;21071;-92
2022/09/18 07:29:32;;;;;;;3.12;1.52;;;;;;;11.46;100.00;97637.59;2154534;83;21515;-89
2022/09/18 07:32:33;;;;;;;3.65;1.65;;;;;;;11.46;100.00;97640.72;2125666;83;20976;-86
2022/09/18 07:35:33;;;;;;;3.42;2.15;;;;;;;11.47;100.00;97637.87;2154252;83;21026;-88
2022/09/18 07:38:34;;;;;;;2.58;2.05;;;;;;;11.52;100.00;97638.06;2154257;83;21066;-91
2022/09/18 07:41:35;;;;;;;2.05;1.80;;;;;;;11.52;100.00;97640.69;2154680;83;21015;-91
2022/09/18 07:44:35;;;;;;;3.35;1.50;;;;;;;11.56;100.00;97641.86;2154220;83;21031;-88
2022/09/18 07:47:36;;;;;;;1.15;0.90;;;;;;;11.69;100.00;97641.76;2154255;83;21003;-87
2022/09/18 07:50:37;;;;;;;3.17;1.95;;;;;;;11.78;100.00;97637.56;2154474;83;22415;-86
2022/09/18 07:53:38;;;;;;;3.37;1.45;;;;;;;11.77;100.00;97649.08;2154233;83;21019;-87
2022/09/18 07:56:39;;;;;;;2.02;1.35;;;;;;;11.77;100.00;97645.95;2154067;83;21035;-89
2022/09/18 07:59:39;;;;;;;3.40;1.50;;;;;;;11.72;100.00;97645.80;2154687;83;21518;-87
2022/09/18 08:02:40;;;;;;;1.20;1.10;;;;;;;11.74;100.00;97647.69;2154257;82;21436;-90
2022/09/18 08:05:41;;;;;;;6.47;1.45;;;;;;;11.84;100.00;97650.67;2154268;83;21471;-89
2022/09/18 08:08:42;;;;;;;3.40;1.65;;;;;;;11.99;100.00;97649.06;2156099;82;21058;-90
2022/09/18 08:11:42;;;;;;;8.68;1.80;;;;;;;12.17;100.00;97653.05;2155759;83;21012;-85
2022/09/18 08:14:43;;;;;;;9.55;8.85;;;;;;;12.38;100.00;97647.09;2154630;81;21586;-89
2022/09/18 08:17:44;;;;;;;1.92;1.72;;;;;;;12.47;100.00;97651.05;2154161;83;21550;-87
2022/09/18 08:20:45;;;;;;;3.02;1.60;;;;;;;12.47;100.00;97656.30;2154830;83;21536;-86
2022/09/18 08:23:46;;;;;;;2.05;1.40;;;;;;;12.41;100.00;97650.59;2156006;83;20983;-86
2022/09/18 08:26:46;;;;;;;2.62;1.92;;;;;;;12.61;100.00;97649.88;2156576;83;20948;-89
2022/09/18 08:29:47;;;;;;;1.62;1.52;;;;;;;12.64;100.00;97648.16;2155769;83;21032;-90
2022/09/18 08:32:48;;;;;;;4.92;1.77;;;;;;;12.75;100.00;97657.92;2154506;82;20975;-88
2022/09/18 08:35:49;;;;;;;4.42;1.98;;;;;;;12.73;100.00;97654.72;2154156;83;21000;-85
2022/09/18 08:38:50;;;;;;;2.55;1.62;;;;;;;12.96;100.00;97649.30;2154383;83;21051;-86
2022/09/18 08:41:50;;;;;;;3.17;1.52;;;;;;;12.98;100.00;97653.31;2154093;83;20987;-89
2022/09/18 08:44:51;;;;;;;1.50;1.40;;;;;;;12.88;100.00;97656.16;2154002;83;21585;-86
2022/09/18 08:47:52;;;;;;;1.75;1.60;;;;;;;12.84;100.00;97649.75;2154001;83;21546;-86
2022/09/18 08:50:52;;;;;;;3.62;1.72;;;;;;;12.81;100.00;97649.18;2154147;83;21008;-86
2022/09/18 08:53:53;;;;;;;2.65;2.33;;;;;;;12.84;100.00;97645.30;2153929;83;20976;-87
2022/09/18 08:56:54;;;;;;;2.62;1.80;;;;;;;12.90;100.00;97651.00;2153944;83;21534;-88
2022/09/18 08:59:55;;;;;;;2.62;1.40;;;;;;;13.07;100.00;97645.45;2153997;83;21451;-86
2022/09/18 09:06:15;;;;;;;2.67;1.55;;;;;;;13.42;100.00;97633.48;2253803;79;21787;-88
2022/09/18 09:09:16;;;;;;;2.00;1.40;;;;;;;13.47;100.00;97641.00;2220998;80;21029;-90
2022/09/18 09:12:17;;;;;;;1.40;1.30;;;;;;;13.49;100.00;97634.20;2220707;80;21013;-87
2022/09/18 09:15:18;;;;;;;1.80;1.50;;;;;;;13.42;100.00;97642.17;2220946;80;21044;-88
2022/09/18 09:18:18;;;;;;;3.22;1.12;;;;;;;13.26;100.00;97639.67;2220989;80;21540;-86
2022/09/18 09:21:19;;;;;;;3.52;1.95;;;;;;;13.11;100.00;97643.16;2220973;80;21040;-86
2022/09/18 09:24:20;;;;;;;1.55;1.40;;;;;;;12.87;100.00;97648.80;2220888;80;21044;-86
2022/09/18 09:27:21;;;;;;;1.90;1.80;;;;;;;12.72;100.00;97640.50;2220919;80;20950;-88
2022/09/18 09:30:22;;;;;;;1.30;1.10;;;;;;;12.67;100.00;97645.59;2220751;79;21008;-87
2022/09/18 09:33:22;;;;;;;4.58;3.22;;;;;;;12.71;100.00;97643.64;2220706;80;21040;-90
2022/09/18 09:36:23;;;;;;;1.92;1.70;;;;;;;12.79;100.00;97643.83;2220809;80;21008;-87
2022/09/18 09:39:24;;;;;;;1.75;1.65;;;;;;;12.96;100.00;97644.84;2220781;80;21044;-88
2022/09/18 09:42:25;;;;;;;0.95;0.95;;;;;;;13.02;100.00;97633.47;2220775;80;20969;-88
2022/09/18 09:45:26;;;;;;;1.70;1.60;;;;;;;13.12;100.00;97636.88;2220704;80;21024;-88
2022/09/18 09:48:27;;;;;;;1.27;1.17;;;;;;;13.14;100.00;97634.83;2220732;80;21036;-86
2022/09/18 09:51:28;;;;;;;3.98;1.27;;;;;;;13.22;100.00;97641.13;2220833;80;21480;-86
2022/09/18 09:54:29;;;;;;;0.90;0.90;;;;;;;13.27;100.00;97645.73;2220926;80;20970;-86
2022/09/18 09:57:29;;;;;;;1.87;1.60;;;;;;;13.33;100.00;97644.83;2221000;80;21009;-87
2022/09/18 10:00:30;;;;;;;1.50;1.47;;;;;;;13.33;100.00;97647.45;2220764;80;20965;-88
2022/09/18 10:03:31;;;;;;;1.72;1.50;;;;;;;13.37;100.00;97652.57;2220734;80;21001;-88
2022/09/18 10:06:32;;;;;;;1.20;1.07;;;;;;;13.45;100.00;97649.63;2220773;80;21003;-88
2022/09/18 10:09:33;;;;;;;1.40;1.30;;;;;;;13.38;100.00;97655.48;2220799;80;21032;-88
2022/09/18 10:12:33;;;;;;;1.47;1.37;;;;;;;13.23;100.00;97650.61;2222320;80;21040;-88
2022/09/18 10:15:34;;;;;;;1.72;1.20;;;;;;;13.04;100.00;97649.81;2223682;80;21498;-86
2022/09/18 10:18:35;;;;;;;3.10;1.20;;;;;;;12.86;100.00;97658.22;2190500;80;21080;-88
2022/09/18 10:21:36;;;;;;;1.67;1.40;;;;;;;12.71;100.00;97659.88;2220612;80;20997;-88
2022/09/18 10:24:37;;;;;;;2.55;1.60;;;;;;;12.64;100.00;97653.41;2220865;80;20977;-88
2022/09/18 10:27:38;;;;;;;1.67;1.42;;;;;;;12.63;100.00;97664.93;2222584;80;21009;-87
2022/09/18 10:30:38;;;;;;;2.50;1.32;;;;;;;12.65;100.00;97657.63;2223398;80;20985;-86
2022/09/18 10:33:39;;;;;;;1.55;1.40;;;;;;;12.69;100.00;97661.41;2221343;80;20978;-90
2022/09/18 10:36:40;;;;;;;2.45;1.80;;;;;;;12.80;100.00;97663.34;2221222;80;21013;-90
2022/09/18 10:39:41;;;;;;;1.70;1.60;;;;;;;12.92;100.00;97669.97;2190242;80;20985;-89
2022/09/18 10:42:41;;;;;;;1.45;1.35;;;;;;;13.02;100.00;97665.00;2220178;80;21012;-89
2022/09/18 10:45:42;;;;;;;1.50;1.40;;;;;;;13.26;100.00;97663.33;2219977;80;20973;-89
2022/09/18 10:48:43;;;;;;;1.90;1.80;;;;;;;13.36;100.00;97663.60;2220219;80;21548;-89
2022/09/18 10:51:44;;;;;;;1.32;1.10;;;;;;;13.40;100.00;97656.06;2219913;80;21048;-89
2022/09/18 10:54:44;;;;;;;1.00;0.90;;;;;;;13.43;100.00;97655.61;2220048;80;21021;-88
2022/09/18 10:57:45;;;;;;;1.42;1.32;;;;;;;13.50;100.00;97652.38;2220223;80;20946;-89
2022/09/18 11:00:46;;;;;;;3.95;1.20;;;;;;;13.65;100.00;97655.92;2220015;80;20977;-90
2022/09/18 11:03:46;;;;;;;1.07;1.02;;;;;;;13.74;100.00;97655.09;2219782;80;21002;-90
2022/09/18 11:06:47;;;;;;;1.22;1.17;;;;;;;13.78;100.00;97650.97;2220004;80;21000;-89
2022/09/18 11:09:48;;;;;;;1.72;1.12;;;;;;;13.94;100.00;97656.39;2219897;80;20985;-88
2022/09/18 11:12:49;;;;;;;2.15;1.40;;;;;;;14.08;100.00;97661.42;2220747;79;20993;-87
2022/09/18 11:15:51;;;;;;;1.20;1.10;;;;;;;14.22;100.00;97657.05;2222228;79;21543;-89
2022/09/18 11:18:52;;;;;;;1.42;0.68;;;;;;;14.33;100.00;97654.13;2223704;78;21032;-91
2022/09/18 11:21:55;;;;;;;1.45;1.10;;;;;;;14.44;100.00;97652.00;2224690;78;20976;-89
2022/09/18 11:24:56;;;;;;;1.12;1.07;;;;;;;14.56;100.00;97652.56;2225094;78;20981;-90
2022/09/18 11:27:57;;;;;;;3.35;0.90;;;;;;;14.66;100.00;97648.31;2224767;80;21061;-87
2022/09/18 11:30:57;;;;;;;1.57;1.47;;;;;;;14.67;100.00;97643.84;2224228;78;20989;-92
2022/09/18 11:33:58;;;;;;;1.40;1.02;;;;;;;14.57;100.00;97647.58;2221147;80;20973;-91
2022/09/18 11:36:59;;;;;;;1.22;1.05;;;;;;;14.53;100.00;97659.07;2221223;80;20964;-87
2022/09/18 11:39:59;;;;;;;2.05;0.50;;;;;;;14.53;100.00;97659.59;2220007;80;20996;-88
2022/09/18 11:43:04;;;;;;;0.90;0.62;;;;;;;14.62;100.00;97662.95;2219873;80;20954;-86
2022/09/18 11:46:03;;;;;;;0.62;0.62;;;;;;;14.69;100.00;97655.74;2219729;79;21544;-87
2022/09/18 11:49:03;;;;;;;0.90;0.90;;;;;;;14.64;100.00;97650.90;2220149;79;21016;-87
2022/09/18 11:52:04;;;;;;;1.10;1.00;;;;;;;14.59;100.00;97654.21;2220239;80;20990;-86
2022/09/18 11:55:07;;;;;;;0.80;0.80;;;;;;;14.61;100.00;97653.97;2220269;79;21051;-88
2022/09/18 11:58:07;;;;;;;1.45;0.90;;;;;;;14.64;100.00;97643.00;2219789;80;21020;-87
2022/09/18 12:01:08;;;;;;;1.22;1.17;;;;;;;14.71;100.00;97658.94;2219767;80;21064;-87
2022/09/18 12:04:09;;;;;;;1.20;1.10;;;;;;;14.56;100.00;97657.31;2219845;80;20957;-87
2022/09/18 12:07:09;;;;;;;1.07;0.88;;;;;;;14.31;100.00;97668.05;2189322;80;21072;-87
2022/09/18 12:10:10;;;;;;;0.40;0.40;;;;;;;14.10;100.00;97662.02;2220086;79;21032;-86
2022/09/18 12:13:11;;;;;;;0.60;0.45;;;;;;;13.92;100.00;97670.29;2220340;80;21505;-84
2022/09/18 12:16:12;;;;;;;0.53;0.53;;;;;;;13.85;100.00;97664.83;2221695;80;21336;-85
2022/09/18 12:19:12;;;;;;;0.60;0.60;;;;;;;13.96;100.00;97677.20;2220497;79;21089;-87
2022/09/18 12:22:13;;;;;;;1.95;1.05;;;;;;;14.04;100.00;97676.87;2220604;80;21043;-87
2022/09/18 12:25:14;;;;;;;3.40;1.15;;;;;;;14.06;100.00;97671.39;2220954;80;21013;-85
2022/09/18 12:28:15;;;;;;;0.70;0.70;;;;;;;14.10;100.00;97682.56;2220392;80;20954;-87
2022/09/18 12:31:15;;;;;;;1.05;0.95;;;;;;;14.13;100.00;97674.72;2224109;79;21499;-85
2022/09/18 12:34:16;;;;;;;1.47;1.37;;;;;;;14.11;100.00;97683.37;2220630;80;20955;-86
2022/09/18 12:37:17;;;;;;;1.85;1.00;;;;;;;14.07;100.00;97674.30;2219835;80;21026;-87
2022/09/18 12:40:18;;;;;;;0.98;0.95;;;;;;;14.08;100.00;97677.22;2220231;80;21039;-87
2022/09/18 12:43:19;;;;;;;1.95;1.50;;;;;;;14.09;100.00;97678.85;2220042;80;20985;-85
2022/09/18 12:46:19;;;;;;;1.35;1.10;;;;;;;13.99;100.00;97675.95;2220554;80;21001;-85
2022/09/18 12:49:20;;;;;;;0.95;0.95;;;;;;;13.92;100.00;97682.13;2219992;80;20965;-85
2022/09/18 12:52:21;;;;;;;1.25;1.17;;;;;;;13.78;100.00;97680.71;2220162;79;20981;-88
2022/09/18 12:55:22;;;;;;;1.32;1.22;;;;;;;13.68;100.00;97683.09;2219842;80;21036;-83
2022/09/18 12:58:22;;;;;;;1.00;1.00;;;;;;;13.57;100.00;97682.02;2220040;80;20973;-87
2022/09/18 13:01:23;;;;;;;1.30;1.30;;;;;;;13.46;100.00;97688.56;2220113;80;20985;-87
2022/09/18 13:04:24;;;;;;;1.22;1.12;;;;;;;13.38;100.00;97693.09;2189270;80;21000;-87
2022/09/18 13:07:24;;;;;;;1.10;0.90;;;;;;;13.46;100.00;97694.63;2220211;80;21022;-92
2022/09/18 13:10:25;;;;;;;1.98;1.87;;;;;;;13.58;100.00;97702.55;2220110;79;21012;-87
2022/09/18 13:13:26;;;;;;;2.55;1.42;;;;;;;13.63;100.00;97700.06;2220084;80;21000;-87
2022/09/18 13:16:27;;;;;;;1.77;1.67;;;;;;;13.66;100.00;97700.41;2219849;80;21117;-88
2022/09/18 13:19:28;;;;;;;3.30;1.87;;;;;;;13.58;100.00;97699.92;2219983;80;21492;-87
2022/09/18 13:22:28;;;;;;;4.35;2.47;;;;;;;13.37;100.00;97702.52;2220556;79;20989;-86
2022/09/18 13:25:29;;;;;;;3.62;2.50;;;;;;;13.21;100.00;97711.80;2220847;80;21060;-86
2022/09/18 13:28:30;;;;;;;1.20;1.15;;;;;;;13.14;100.00;97708.41;2220202;80;21004;-88
2022/09/18 13:31:31;;;;;;;3.65;3.25;;;;;;;13.15;100.00;97708.70;2219806;80;20997;-87
2022/09/18 13:34:31;;;;;;;2.92;2.55;;;;;;;13.22;100.00;97704.21;2219940;80;21004;-87
2022/09/18 13:37:32;;;;;;;1.77;1.67;;;;;;;13.15;100.00;97704.77;2219909;80;20997;-87
2022/09/18 13:40:34;;;;;;;2.17;2.08;;;;;;;13.05;100.00;97712.36;2219834;80;20973;-88
2022/09/18 13:43:35;;;;;;;1.30;1.30;;;;;;;12.86;100.00;97709.44;2219969;80;21110;-89
2022/09/18 13:46:37;;;;;;;1.25;1.25;;;;;;;12.80;100.00;97715.88;2219902;80;21013;-87
2022/09/18 13:49:38;;;;;;;2.08;1.98;;;;;;;12.79;100.00;97713.44;2219930;79;21552;-88
2022/09/18 13:52:39;;;;;;;1.85;1.67;;;;;;;12.85;100.00;97717.83;2220127;80;20988;-88
2022/09/18 13:55:40;;;;;;;2.75;2.55;;;;;;;12.87;100.00;97715.78;2220134;80;21535;-88
2022/09/18 13:58:41;;;;;;;1.72;1.50;;;;;;;12.91;100.00;97723.54;2220178;79;21022;-88
2022/09/18 14:01:42;;;;;;;1.80;1.65;;;;;;;12.94;100.00;97716.52;2220204;79;20977;-88
2022/09/18 14:04:45;;;;;;;2.35;2.20;;;;;;;12.96;100.00;97716.30;2220001;79;21532;-88